sensor_id;sensor_type;location;lat;lon;timestamp;P1;durP1;ratioP1;P2;durP2;ratioP2
54454;SDS011;40364;52.270;10.546;2023-04-09T00:02:09;55.22;;;23.70;;
54454;SDS011;40364;52.270;10.546;2023-04-09T00:04:36;58.00;;;23.92;;
54454;SDS011;40364;52.270;10.546;2023-04-09T00:07:02;60.08;;;23.42;;
54454;SDS011;40364;52.270;10.546;2023-04-09T00:09:28;58.25;;;23.65;;
54454;SDS011;40364;52.270;10.546;2023-04-09T00:11:55;64.65;;;24.13;;
54454;SDS011;40364;52.270;10.546;2023-04-09T00:14:22;62.03;;;23.88;;
54454;SDS011;40364;52.270;10.546;2023-04-09T00:16:48;55.20;;;23.90;;
54454;SDS011;40364;52.270;10.546;2023-04-09T00:19:16;59.05;;;23.77;;
54454;SDS011;40364;52.270;10.546;2023-04-09T00:21:42;62.85;;;24.70;;
54454;SDS011;40364;52.270;10.546;2023-04-09T00:24:09;57.53;;;23.33;;
54454;SDS011;40364;52.270;10.546;2023-04-09T00:26:35;59.22;;;23.73;;
54454;SDS011;40364;52.270;10.546;2023-04-09T00:29:02;55.70;;;21.23;;
54454;SDS011;40364;52.270;10.546;2023-04-09T00:31:28;52.97;;;21.80;;
54454;SDS011;40364;52.270;10.546;2023-04-09T00:33:54;47.40;;;21.80;;
54454;SDS011;40364;52.270;10.546;2023-04-09T00:36:22;48.35;;;21.17;;
54454;SDS011;40364;52.270;10.546;2023-04-09T00:38:49;47.17;;;21.23;;
54454;SDS011;40364;52.270;10.546;2023-04-09T00:41:16;57.38;;;22.58;;
54454;SDS011;40364;52.270;10.546;2023-04-09T00:43:43;59.53;;;24.88;;
54454;SDS011;40364;52.270;10.546;2023-04-09T00:46:10;53.60;;;23.90;;
54454;SDS011;40364;52.270;10.546;2023-04-09T00:48:37;56.47;;;24.90;;
54454;SDS011;40364;52.270;10.546;2023-04-09T00:51:03;53.78;;;24.15;;
54454;SDS011;40364;52.270;10.546;2023-04-09T00:53:31;53.15;;;23.23;;
54454;SDS011;40364;52.270;10.546;2023-04-09T00:55:58;52.08;;;22.48;;
54454;SDS011;40364;52.270;10.546;2023-04-09T00:58:24;51.85;;;22.92;;
54454;SDS011;40364;52.270;10.546;2023-04-09T01:00:51;51.25;;;21.40;;
54454;SDS011;40364;52.270;10.546;2023-04-09T01:03:18;51.35;;;23.42;;
54454;SDS011;40364;52.270;10.546;2023-04-09T01:05:47;46.83;;;22.23;;
54454;SDS011;40364;52.270;10.546;2023-04-09T01:08:18;52.58;;;22.35;;
54454;SDS011;40364;52.270;10.546;2023-04-09T01:10:51;48.00;;;21.92;;
54454;SDS011;40364;52.270;10.546;2023-04-09T01:13:22;45.00;;;21.50;;
54454;SDS011;40364;52.270;10.546;2023-04-09T01:15:51;50.63;;;21.95;;
54454;SDS011;40364;52.270;10.546;2023-04-09T01:18:21;45.10;;;21.40;;
54454;SDS011;40364;52.270;10.546;2023-04-09T01:20:48;46.95;;;22.67;;
54454;SDS011;40364;52.270;10.546;2023-04-09T01:23:18;50.47;;;22.50;;
54454;SDS011;40364;52.270;10.546;2023-04-09T01:26:00;55.00;;;23.05;;
54454;SDS011;40364;52.270;10.546;2023-04-09T01:28:30;46.90;;;20.70;;
54454;SDS011;40364;52.270;10.546;2023-04-09T01:30:58;54.45;;;21.13;;
54454;SDS011;40364;52.270;10.546;2023-04-09T01:33:24;42.28;;;21.00;;
54454;SDS011;40364;52.270;10.546;2023-04-09T01:35:52;57.05;;;23.52;;
54454;SDS011;40364;52.270;10.546;2023-04-09T01:38:19;59.00;;;21.80;;
54454;SDS011;40364;52.270;10.546;2023-04-09T01:40:46;49.00;;;22.08;;
54454;SDS011;40364;52.270;10.546;2023-04-09T01:43:14;56.58;;;20.92;;
54454;SDS011;40364;52.270;10.546;2023-04-09T01:45:42;47.25;;;19.88;;
54454;SDS011;40364;52.270;10.546;2023-04-09T01:48:09;47.72;;;21.30;;
54454;SDS011;40364;52.270;10.546;2023-04-09T01:50:36;43.67;;;20.17;;
54454;SDS011;40364;52.270;10.546;2023-04-09T01:53:03;49.45;;;20.38;;
54454;SDS011;40364;52.270;10.546;2023-04-09T01:55:29;39.45;;;18.48;;
54454;SDS011;40364;52.270;10.546;2023-04-09T01:57:55;41.33;;;19.23;;
54454;SDS011;40364;52.270;10.546;2023-04-09T02:00:22;53.88;;;21.42;;
54454;SDS011;40364;52.270;10.546;2023-04-09T02:02:52;46.72;;;20.58;;
54454;SDS011;40364;52.270;10.546;2023-04-09T02:05:20;44.30;;;19.23;;
54454;SDS011;40364;52.270;10.546;2023-04-09T02:07:49;43.17;;;19.20;;
54454;SDS011;40364;52.270;10.546;2023-04-09T02:10:17;45.42;;;19.30;;
54454;SDS011;40364;52.270;10.546;2023-04-09T02:12:47;41.63;;;18.52;;
54454;SDS011;40364;52.270;10.546;2023-04-09T02:15:14;39.88;;;19.17;;
54454;SDS011;40364;52.270;10.546;2023-04-09T02:17:41;42.15;;;19.02;;
54454;SDS011;40364;52.270;10.546;2023-04-09T02:20:10;42.72;;;19.90;;
54454;SDS011;40364;52.270;10.546;2023-04-09T02:22:37;40.38;;;18.27;;
54454;SDS011;40364;52.270;10.546;2023-04-09T02:25:04;38.08;;;17.55;;
54454;SDS011;40364;52.270;10.546;2023-04-09T02:27:31;31.13;;;14.90;;
54454;SDS011;40364;52.270;10.546;2023-04-09T02:29:57;33.47;;;15.75;;
54454;SDS011;40364;52.270;10.546;2023-04-09T02:32:24;27.77;;;15.70;;
54454;SDS011;40364;52.270;10.546;2023-04-09T02:34:50;32.58;;;16.38;;
54454;SDS011;40364;52.270;10.546;2023-04-09T02:37:18;31.38;;;13.73;;
54454;SDS011;40364;52.270;10.546;2023-04-09T02:39:44;31.80;;;16.55;;
54454;SDS011;40364;52.270;10.546;2023-04-09T02:42:11;32.08;;;15.90;;
54454;SDS011;40364;52.270;10.546;2023-04-09T02:44:37;33.78;;;15.48;;
54454;SDS011;40364;52.270;10.546;2023-04-09T02:47:03;31.42;;;15.18;;
54454;SDS011;40364;52.270;10.546;2023-04-09T02:49:30;27.98;;;15.20;;
54454;SDS011;40364;52.270;10.546;2023-04-09T02:51:56;35.42;;;15.98;;
54454;SDS011;40364;52.270;10.546;2023-04-09T02:54:24;29.35;;;15.00;;
54454;SDS011;40364;52.270;10.546;2023-04-09T02:56:50;32.13;;;15.40;;
54454;SDS011;40364;52.270;10.546;2023-04-09T02:59:17;37.75;;;17.35;;
54454;SDS011;40364;52.270;10.546;2023-04-09T03:01:43;31.40;;;17.17;;
54454;SDS011;40364;52.270;10.546;2023-04-09T03:04:10;33.25;;;16.00;;
54454;SDS011;40364;52.270;10.546;2023-04-09T03:06:36;37.67;;;16.83;;
54454;SDS011;40364;52.270;10.546;2023-04-09T03:09:02;35.97;;;17.10;;
54454;SDS011;40364;52.270;10.546;2023-04-09T03:11:30;35.70;;;18.17;;
54454;SDS011;40364;52.270;10.546;2023-04-09T03:13:57;36.13;;;17.20;;
54454;SDS011;40364;52.270;10.546;2023-04-09T03:16:23;37.60;;;17.58;;
54454;SDS011;40364;52.270;10.546;2023-04-09T03:18:50;42.33;;;18.25;;
54454;SDS011;40364;52.270;10.546;2023-04-09T03:21:16;41.67;;;18.08;;
54454;SDS011;40364;52.270;10.546;2023-04-09T03:23:43;40.83;;;17.23;;
54454;SDS011;40364;52.270;10.546;2023-04-09T03:26:09;38.67;;;17.08;;
54454;SDS011;40364;52.270;10.546;2023-04-09T03:28:37;39.97;;;18.13;;
54454;SDS011;40364;52.270;10.546;2023-04-09T03:31:03;30.73;;;16.40;;
54454;SDS011;40364;52.270;10.546;2023-04-09T03:33:30;37.42;;;17.10;;
54454;SDS011;40364;52.270;10.546;2023-04-09T03:35:56;39.28;;;17.88;;
54454;SDS011;40364;52.270;10.546;2023-04-09T03:38:22;31.20;;;16.08;;
54454;SDS011;40364;52.270;10.546;2023-04-09T03:40:49;33.33;;;15.45;;
54454;SDS011;40364;52.270;10.546;2023-04-09T03:43:15;34.58;;;17.45;;
54454;SDS011;40364;52.270;10.546;2023-04-09T03:45:43;34.85;;;16.35;;
54454;SDS011;40364;52.270;10.546;2023-04-09T03:48:10;26.63;;;14.68;;
54454;SDS011;40364;52.270;10.546;2023-04-09T03:50:37;29.05;;;14.90;;
54454;SDS011;40364;52.270;10.546;2023-04-09T03:53:03;28.90;;;14.05;;
54454;SDS011;40364;52.270;10.546;2023-04-09T03:55:29;28.02;;;14.60;;
54454;SDS011;40364;52.270;10.546;2023-04-09T03:57:56;27.48;;;14.52;;
54454;SDS011;40364;52.270;10.546;2023-04-09T04:00:22;28.80;;;14.57;;
54454;SDS011;40364;52.270;10.546;2023-04-09T04:02:50;29.63;;;14.75;;
54454;SDS011;40364;52.270;10.546;2023-04-09T04:05:16;29.05;;;14.38;;
54454;SDS011;40364;52.270;10.546;2023-04-09T04:07:43;27.65;;;14.10;;
54454;SDS011;40364;52.270;10.546;2023-04-09T04:10:09;28.55;;;14.40;;
54454;SDS011;40364;52.270;10.546;2023-04-09T04:12:35;29.40;;;15.23;;
54454;SDS011;40364;52.270;10.546;2023-04-09T04:15:02;28.25;;;13.57;;
54454;SDS011;40364;52.270;10.546;2023-04-09T04:17:29;35.80;;;16.33;;
54454;SDS011;40364;52.270;10.546;2023-04-09T04:19:56;32.10;;;15.63;;
54454;SDS011;40364;52.270;10.546;2023-04-09T04:22:23;31.92;;;14.68;;
54454;SDS011;40364;52.270;10.546;2023-04-09T04:24:49;30.42;;;14.32;;
54454;SDS011;40364;52.270;10.546;2023-04-09T04:27:16;31.58;;;15.48;;
54454;SDS011;40364;52.270;10.546;2023-04-09T04:29:42;25.17;;;14.27;;
54454;SDS011;40364;52.270;10.546;2023-04-09T04:32:09;29.42;;;15.05;;
54454;SDS011;40364;52.270;10.546;2023-04-09T04:34:35;28.42;;;16.00;;
54454;SDS011;40364;52.270;10.546;2023-04-09T04:37:03;30.73;;;15.10;;
54454;SDS011;40364;52.270;10.546;2023-04-09T04:39:29;31.92;;;15.32;;
54454;SDS011;40364;52.270;10.546;2023-04-09T04:41:56;28.02;;;14.85;;
54454;SDS011;40364;52.270;10.546;2023-04-09T04:44:22;29.25;;;14.75;;
54454;SDS011;40364;52.270;10.546;2023-04-09T04:46:49;29.02;;;15.18;;
54454;SDS011;40364;52.270;10.546;2023-04-09T04:49:15;38.83;;;17.55;;
54454;SDS011;40364;52.270;10.546;2023-04-09T04:51:41;32.38;;;15.98;;
54454;SDS011;40364;52.270;10.546;2023-04-09T04:54:09;29.35;;;15.23;;
54454;SDS011;40364;52.270;10.546;2023-04-09T04:56:36;29.40;;;15.50;;
54454;SDS011;40364;52.270;10.546;2023-04-09T04:59:02;27.88;;;15.63;;
54454;SDS011;40364;52.270;10.546;2023-04-09T05:01:28;30.90;;;15.57;;
54454;SDS011;40364;52.270;10.546;2023-04-09T05:03:55;30.58;;;15.60;;
54454;SDS011;40364;52.270;10.546;2023-04-09T05:06:21;26.38;;;14.88;;
54454;SDS011;40364;52.270;10.546;2023-04-09T05:08:48;31.35;;;14.52;;
54454;SDS011;40364;52.270;10.546;2023-04-09T05:11:15;31.95;;;16.38;;
54454;SDS011;40364;52.270;10.546;2023-04-09T05:13:42;34.00;;;15.90;;
54454;SDS011;40364;52.270;10.546;2023-04-09T05:16:14;30.63;;;15.20;;
54454;SDS011;40364;52.270;10.546;2023-04-09T05:18:41;35.65;;;15.52;;
54454;SDS011;40364;52.270;10.546;2023-04-09T05:21:07;30.70;;;15.23;;
54454;SDS011;40364;52.270;10.546;2023-04-09T05:23:33;37.88;;;16.48;;
54454;SDS011;40364;52.270;10.546;2023-04-09T05:26:00;33.50;;;16.33;;
54454;SDS011;40364;52.270;10.546;2023-04-09T05:28:27;28.77;;;15.35;;
54454;SDS011;40364;52.270;10.546;2023-04-09T05:30:54;35.03;;;15.50;;
54454;SDS011;40364;52.270;10.546;2023-04-09T05:33:20;31.20;;;14.85;;
54454;SDS011;40364;52.270;10.546;2023-04-09T05:35:48;30.17;;;14.90;;
54454;SDS011;40364;52.270;10.546;2023-04-09T05:38:14;24.88;;;13.60;;
54454;SDS011;40364;52.270;10.546;2023-04-09T05:40:41;29.25;;;14.35;;
54454;SDS011;40364;52.270;10.546;2023-04-09T05:43:21;25.83;;;14.25;;
54454;SDS011;40364;52.270;10.546;2023-04-09T05:45:49;33.58;;;15.10;;
54454;SDS011;40364;52.270;10.546;2023-04-09T05:48:15;27.67;;;14.57;;
54454;SDS011;40364;52.270;10.546;2023-04-09T05:53:45;25.58;;;12.05;;
54454;SDS011;40364;52.270;10.546;2023-04-09T05:56:12;31.70;;;14.35;;
54454;SDS011;40364;52.270;10.546;2023-04-09T05:58:39;26.38;;;13.82;;
54454;SDS011;40364;52.270;10.546;2023-04-09T06:01:07;27.45;;;13.65;;
54454;SDS011;40364;52.270;10.546;2023-04-09T06:03:34;30.95;;;14.43;;
54454;SDS011;40364;52.270;10.546;2023-04-09T06:06:00;24.90;;;13.52;;
54454;SDS011;40364;52.270;10.546;2023-04-09T06:08:27;24.83;;;12.93;;
54454;SDS011;40364;52.270;10.546;2023-04-09T06:10:53;27.50;;;14.52;;
54454;SDS011;40364;52.270;10.546;2023-04-09T06:13:19;30.45;;;14.63;;
54454;SDS011;40364;52.270;10.546;2023-04-09T06:15:46;23.85;;;13.48;;
54454;SDS011;40364;52.270;10.546;2023-04-09T06:18:14;29.67;;;13.82;;
54454;SDS011;40364;52.270;10.546;2023-04-09T06:20:41;26.73;;;13.55;;
54454;SDS011;40364;52.270;10.546;2023-04-09T06:23:07;27.73;;;14.38;;
54454;SDS011;40364;52.270;10.546;2023-04-09T06:25:34;26.13;;;13.63;;
54454;SDS011;40364;52.270;10.546;2023-04-09T06:28:00;27.40;;;14.20;;
54454;SDS011;40364;52.270;10.546;2023-04-09T06:30:27;29.02;;;13.43;;
54454;SDS011;40364;52.270;10.546;2023-04-09T06:32:53;27.75;;;15.10;;
54454;SDS011;40364;52.270;10.546;2023-04-09T06:35:21;30.58;;;14.70;;
54454;SDS011;40364;52.270;10.546;2023-04-09T06:37:48;28.08;;;14.93;;
54454;SDS011;40364;52.270;10.546;2023-04-09T06:40:14;27.15;;;13.55;;
54454;SDS011;40364;52.270;10.546;2023-04-09T06:42:41;26.73;;;14.25;;
54454;SDS011;40364;52.270;10.546;2023-04-09T06:45:07;32.15;;;14.82;;
54454;SDS011;40364;52.270;10.546;2023-04-09T06:47:34;28.40;;;14.93;;
54454;SDS011;40364;52.270;10.546;2023-04-09T06:50:00;26.90;;;14.55;;
54454;SDS011;40364;52.270;10.546;2023-04-09T06:52:28;28.77;;;14.23;;
54454;SDS011;40364;52.270;10.546;2023-04-09T06:54:55;33.22;;;15.00;;
54454;SDS011;40364;52.270;10.546;2023-04-09T06:57:21;47.00;;;19.70;;
54454;SDS011;40364;52.270;10.546;2023-04-09T06:59:48;32.22;;;15.93;;
54454;SDS011;40364;52.270;10.546;2023-04-09T07:02:14;32.78;;;15.00;;
54454;SDS011;40364;52.270;10.546;2023-04-09T07:04:41;28.00;;;14.77;;
54454;SDS011;40364;52.270;10.546;2023-04-09T07:07:07;34.65;;;14.23;;
54454;SDS011;40364;52.270;10.546;2023-04-09T07:09:35;34.90;;;15.65;;
54454;SDS011;40364;52.270;10.546;2023-04-09T07:12:01;26.75;;;13.85;;
54454;SDS011;40364;52.270;10.546;2023-04-09T07:14:28;25.25;;;13.43;;
54454;SDS011;40364;52.270;10.546;2023-04-09T07:16:54;32.25;;;14.95;;
54454;SDS011;40364;52.270;10.546;2023-04-09T07:19:20;27.52;;;14.93;;
54454;SDS011;40364;52.270;10.546;2023-04-09T07:21:47;34.13;;;15.13;;
54454;SDS011;40364;52.270;10.546;2023-04-09T07:24:13;39.28;;;15.15;;
54454;SDS011;40364;52.270;10.546;2023-04-09T07:26:41;30.20;;;14.10;;
54454;SDS011;40364;52.270;10.546;2023-04-09T07:29:08;36.05;;;14.15;;
54454;SDS011;40364;52.270;10.546;2023-04-09T07:31:35;34.47;;;16.30;;
54454;SDS011;40364;52.270;10.546;2023-04-09T07:34:01;34.03;;;16.05;;
54454;SDS011;40364;52.270;10.546;2023-04-09T07:36:28;30.73;;;14.05;;
54454;SDS011;40364;52.270;10.546;2023-04-09T07:38:55;34.85;;;15.52;;
54454;SDS011;40364;52.270;10.546;2023-04-09T07:41:22;31.40;;;15.07;;
54454;SDS011;40364;52.270;10.546;2023-04-09T07:43:50;35.38;;;16.60;;
54454;SDS011;40364;52.270;10.546;2023-04-09T07:46:19;31.05;;;14.40;;
54454;SDS011;40364;52.270;10.546;2023-04-09T07:48:46;36.20;;;15.48;;
54454;SDS011;40364;52.270;10.546;2023-04-09T07:51:13;37.80;;;15.05;;
54454;SDS011;40364;52.270;10.546;2023-04-09T07:53:40;36.17;;;16.35;;
54454;SDS011;40364;52.270;10.546;2023-04-09T07:56:06;37.88;;;15.80;;
54454;SDS011;40364;52.270;10.546;2023-04-09T07:58:33;35.28;;;14.95;;
54454;SDS011;40364;52.270;10.546;2023-04-09T08:01:01;33.97;;;15.80;;
54454;SDS011;40364;52.270;10.546;2023-04-09T08:03:28;33.30;;;16.20;;
54454;SDS011;40364;52.270;10.546;2023-04-09T08:05:54;31.05;;;14.27;;
54454;SDS011;40364;52.270;10.546;2023-04-09T08:08:20;30.85;;;14.98;;
54454;SDS011;40364;52.270;10.546;2023-04-09T08:10:47;35.55;;;15.93;;
54454;SDS011;40364;52.270;10.546;2023-04-09T08:13:13;30.40;;;14.55;;
54454;SDS011;40364;52.270;10.546;2023-04-09T08:15:40;30.25;;;15.07;;
54454;SDS011;40364;52.270;10.546;2023-04-09T08:18:07;31.10;;;15.10;;
54454;SDS011;40364;52.270;10.546;2023-04-09T08:20:34;34.33;;;15.73;;
54454;SDS011;40364;52.270;10.546;2023-04-09T08:23:00;29.92;;;14.73;;
54454;SDS011;40364;52.270;10.546;2023-04-09T08:25:27;33.47;;;15.00;;
54454;SDS011;40364;52.270;10.546;2023-04-09T08:27:53;35.28;;;15.00;;
54454;SDS011;40364;52.270;10.546;2023-04-09T08:30:19;42.80;;;16.25;;
54454;SDS011;40364;52.270;10.546;2023-04-09T08:32:46;40.47;;;17.15;;
54454;SDS011;40364;52.270;10.546;2023-04-09T08:35:14;36.28;;;16.33;;
54454;SDS011;40364;52.270;10.546;2023-04-09T08:37:40;41.40;;;15.32;;
54454;SDS011;40364;52.270;10.546;2023-04-09T08:40:07;39.25;;;15.90;;
54454;SDS011;40364;52.270;10.546;2023-04-09T08:42:34;43.28;;;15.95;;
54454;SDS011;40364;52.270;10.546;2023-04-09T08:45:02;38.08;;;16.88;;
54454;SDS011;40364;52.270;10.546;2023-04-09T08:47:28;38.20;;;15.82;;
54454;SDS011;40364;52.270;10.546;2023-04-09T08:49:55;34.97;;;15.27;;
54454;SDS011;40364;52.270;10.546;2023-04-09T08:52:30;35.08;;;16.40;;
54454;SDS011;40364;52.270;10.546;2023-04-09T08:54:57;36.83;;;16.57;;
54454;SDS011;40364;52.270;10.546;2023-04-09T08:57:23;43.90;;;18.65;;
54454;SDS011;40364;52.270;10.546;2023-04-09T08:59:49;39.97;;;16.83;;
54454;SDS011;40364;52.270;10.546;2023-04-09T09:02:16;36.90;;;15.93;;
54454;SDS011;40364;52.270;10.546;2023-04-09T09:04:43;35.70;;;17.05;;
54454;SDS011;40364;52.270;10.546;2023-04-09T09:07:10;35.85;;;17.13;;
54454;SDS011;40364;52.270;10.546;2023-04-09T09:09:50;38.97;;;16.73;;
54454;SDS011;40364;52.270;10.546;2023-04-09T09:14:59;36.97;;;16.65;;
54454;SDS011;40364;52.270;10.546;2023-04-09T09:17:25;40.03;;;18.02;;
54454;SDS011;40364;52.270;10.546;2023-04-09T09:19:51;37.50;;;17.67;;
54454;SDS011;40364;52.270;10.546;2023-04-09T09:22:18;41.35;;;17.73;;
54454;SDS011;40364;52.270;10.546;2023-04-09T09:24:45;34.17;;;16.15;;
54454;SDS011;40364;52.270;10.546;2023-04-09T09:27:14;36.15;;;16.70;;
54454;SDS011;40364;52.270;10.546;2023-04-09T09:29:55;36.42;;;16.15;;
54454;SDS011;40364;52.270;10.546;2023-04-09T09:32:22;31.35;;;16.00;;
54454;SDS011;40364;52.270;10.546;2023-04-09T09:34:56;32.75;;;16.00;;
54454;SDS011;40364;52.270;10.546;2023-04-09T09:37:25;33.75;;;16.38;;
54454;SDS011;40364;52.270;10.546;2023-04-09T09:39:52;30.35;;;16.50;;
54454;SDS011;40364;52.270;10.546;2023-04-09T09:42:20;32.22;;;15.90;;
54454;SDS011;40364;52.270;10.546;2023-04-09T09:44:47;35.53;;;16.75;;
54454;SDS011;40364;52.270;10.546;2023-04-09T09:47:15;32.05;;;15.80;;
54454;SDS011;40364;52.270;10.546;2023-04-09T09:49:42;36.08;;;17.13;;
54454;SDS011;40364;52.270;10.546;2023-04-09T09:52:09;42.92;;;19.23;;
54454;SDS011;40364;52.270;10.546;2023-04-09T09:54:37;37.53;;;16.65;;
54454;SDS011;40364;52.270;10.546;2023-04-09T09:57:05;28.85;;;15.35;;
54454;SDS011;40364;52.270;10.546;2023-04-09T09:59:36;29.45;;;16.05;;
54454;SDS011;40364;52.270;10.546;2023-04-09T10:02:03;34.58;;;16.38;;
54454;SDS011;40364;52.270;10.546;2023-04-09T10:04:31;36.55;;;17.98;;
54454;SDS011;40364;52.270;10.546;2023-04-09T10:06:58;34.95;;;17.00;;
54454;SDS011;40364;52.270;10.546;2023-04-09T10:09:27;32.15;;;16.40;;
54454;SDS011;40364;52.270;10.546;2023-04-09T10:11:54;32.55;;;15.65;;
54454;SDS011;40364;52.270;10.546;2023-04-09T10:14:20;34.80;;;16.05;;
54454;SDS011;40364;52.270;10.546;2023-04-09T10:16:48;30.50;;;14.73;;
54454;SDS011;40364;52.270;10.546;2023-04-09T10:19:15;33.08;;;16.48;;
54454;SDS011;40364;52.270;10.546;2023-04-09T10:21:44;34.08;;;16.50;;
54454;SDS011;40364;52.270;10.546;2023-04-09T10:24:13;33.40;;;16.75;;
54454;SDS011;40364;52.270;10.546;2023-04-09T10:26:40;31.77;;;16.05;;
54454;SDS011;40364;52.270;10.546;2023-04-09T10:29:07;31.70;;;16.05;;
54454;SDS011;40364;52.270;10.546;2023-04-09T10:34:17;31.65;;;16.13;;
54454;SDS011;40364;52.270;10.546;2023-04-09T10:36:44;30.92;;;15.77;;
54454;SDS011;40364;52.270;10.546;2023-04-09T10:39:10;28.80;;;15.23;;
54454;SDS011;40364;52.270;10.546;2023-04-09T10:41:37;27.58;;;14.73;;
54454;SDS011;40364;52.270;10.546;2023-04-09T10:44:05;27.50;;;15.88;;
54454;SDS011;40364;52.270;10.546;2023-04-09T10:46:33;32.53;;;16.35;;
54454;SDS011;40364;52.270;10.546;2023-04-09T10:49:09;31.27;;;16.90;;
54454;SDS011;40364;52.270;10.546;2023-04-09T10:51:38;31.92;;;17.27;;
54454;SDS011;40364;52.270;10.546;2023-04-09T10:54:05;28.42;;;16.27;;
54454;SDS011;40364;52.270;10.546;2023-04-09T10:56:32;29.45;;;16.10;;
54454;SDS011;40364;52.270;10.546;2023-04-09T10:58:59;33.42;;;17.50;;
54454;SDS011;40364;52.270;10.546;2023-04-09T11:01:25;29.20;;;16.15;;
54454;SDS011;40364;52.270;10.546;2023-04-09T11:04:06;28.58;;;16.65;;
54454;SDS011;40364;52.270;10.546;2023-04-09T11:06:33;32.25;;;17.10;;
54454;SDS011;40364;52.270;10.546;2023-04-09T11:09:02;29.55;;;17.45;;
54454;SDS011;40364;52.270;10.546;2023-04-09T11:11:28;29.63;;;17.08;;
54454;SDS011;40364;52.270;10.546;2023-04-09T11:13:57;31.05;;;17.58;;
54454;SDS011;40364;52.270;10.546;2023-04-09T11:16:23;28.30;;;17.42;;
54454;SDS011;40364;52.270;10.546;2023-04-09T11:18:50;30.08;;;17.77;;
54454;SDS011;40364;52.270;10.546;2023-04-09T11:21:17;30.65;;;18.67;;
54454;SDS011;40364;52.270;10.546;2023-04-09T11:23:48;32.63;;;17.48;;
54454;SDS011;40364;52.270;10.546;2023-04-09T11:26:18;29.98;;;17.35;;
54454;SDS011;40364;52.270;10.546;2023-04-09T11:28:48;28.95;;;16.63;;
54454;SDS011;40364;52.270;10.546;2023-04-09T11:31:14;27.20;;;16.25;;
54454;SDS011;40364;52.270;10.546;2023-04-09T11:33:44;29.05;;;16.67;;
54454;SDS011;40364;52.270;10.546;2023-04-09T11:36:10;31.10;;;18.50;;
54454;SDS011;40364;52.270;10.546;2023-04-09T11:38:37;29.30;;;16.70;;
54454;SDS011;40364;52.270;10.546;2023-04-09T11:41:03;27.73;;;16.40;;
54454;SDS011;40364;52.270;10.546;2023-04-09T11:43:31;28.48;;;16.35;;
54454;SDS011;40364;52.270;10.546;2023-04-09T11:46:01;30.20;;;17.65;;
54454;SDS011;40364;52.270;10.546;2023-04-09T11:48:27;32.38;;;17.25;;
54454;SDS011;40364;52.270;10.546;2023-04-09T11:50:54;32.00;;;17.95;;
54454;SDS011;40364;52.270;10.546;2023-04-09T11:53:21;29.48;;;16.15;;
54454;SDS011;40364;52.270;10.546;2023-04-09T11:55:48;30.27;;;16.58;;
54454;SDS011;40364;52.270;10.546;2023-04-09T11:58:15;29.45;;;16.83;;
54454;SDS011;40364;52.270;10.546;2023-04-09T12:00:43;30.48;;;18.55;;
54454;SDS011;40364;52.270;10.546;2023-04-09T12:03:10;25.65;;;15.80;;
54454;SDS011;40364;52.270;10.546;2023-04-09T12:05:37;29.92;;;18.40;;
54454;SDS011;40364;52.270;10.546;2023-04-09T12:08:04;28.17;;;16.63;;
54454;SDS011;40364;52.270;10.546;2023-04-09T12:10:32;29.95;;;17.50;;
54454;SDS011;40364;52.270;10.546;2023-04-09T12:13:00;26.02;;;16.58;;
54454;SDS011;40364;52.270;10.546;2023-04-09T12:15:29;27.00;;;17.00;;
54454;SDS011;40364;52.270;10.546;2023-04-09T12:17:57;28.70;;;16.58;;
54454;SDS011;40364;52.270;10.546;2023-04-09T12:20:27;27.05;;;16.45;;
54454;SDS011;40364;52.270;10.546;2023-04-09T12:22:53;31.75;;;17.95;;
54454;SDS011;40364;52.270;10.546;2023-04-09T12:25:20;28.25;;;17.52;;
54454;SDS011;40364;52.270;10.546;2023-04-09T12:27:46;29.17;;;17.30;;
54454;SDS011;40364;52.270;10.546;2023-04-09T12:30:12;27.33;;;17.10;;
54454;SDS011;40364;52.270;10.546;2023-04-09T12:32:39;26.88;;;17.52;;
54454;SDS011;40364;52.270;10.546;2023-04-09T12:35:08;28.92;;;17.88;;
54454;SDS011;40364;52.270;10.546;2023-04-09T12:37:34;24.85;;;16.15;;
54454;SDS011;40364;52.270;10.546;2023-04-09T12:40:01;24.88;;;16.05;;
54454;SDS011;40364;52.270;10.546;2023-04-09T12:42:27;26.38;;;16.10;;
54454;SDS011;40364;52.270;10.546;2023-04-09T12:44:54;27.00;;;15.35;;
54454;SDS011;40364;52.270;10.546;2023-04-09T12:47:20;27.80;;;16.95;;
54454;SDS011;40364;52.270;10.546;2023-04-09T12:49:46;28.73;;;15.73;;
54454;SDS011;40364;52.270;10.546;2023-04-09T12:52:15;30.65;;;16.98;;
54454;SDS011;40364;52.270;10.546;2023-04-09T12:54:42;23.92;;;14.88;;
54454;SDS011;40364;52.270;10.546;2023-04-09T12:57:09;26.55;;;17.02;;
54454;SDS011;40364;52.270;10.546;2023-04-09T12:59:35;25.20;;;15.75;;
54454;SDS011;40364;52.270;10.546;2023-04-09T13:02:02;25.80;;;16.98;;
54454;SDS011;40364;52.270;10.546;2023-04-09T13:04:28;28.25;;;16.40;;
54454;SDS011;40364;52.270;10.546;2023-04-09T13:06:55;27.52;;;16.52;;
54454;SDS011;40364;52.270;10.546;2023-04-09T13:09:23;24.88;;;15.32;;
54454;SDS011;40364;52.270;10.546;2023-04-09T13:11:49;23.38;;;14.73;;
54454;SDS011;40364;52.270;10.546;2023-04-09T13:14:16;26.77;;;15.70;;
54454;SDS011;40364;52.270;10.546;2023-04-09T13:16:42;28.58;;;16.17;;
54454;SDS011;40364;52.270;10.546;2023-04-09T13:19:08;24.27;;;13.93;;
54454;SDS011;40364;52.270;10.546;2023-04-09T13:21:35;26.05;;;14.27;;
54454;SDS011;40364;52.270;10.546;2023-04-09T13:24:01;23.45;;;14.40;;
54454;SDS011;40364;52.270;10.546;2023-04-09T13:26:30;25.98;;;14.82;;
54454;SDS011;40364;52.270;10.546;2023-04-09T13:28:56;23.70;;;14.45;;
54454;SDS011;40364;52.270;10.546;2023-04-09T13:31:23;22.77;;;14.05;;
54454;SDS011;40364;52.270;10.546;2023-04-09T13:33:50;22.33;;;13.63;;
54454;SDS011;40364;52.270;10.546;2023-04-09T13:36:16;22.08;;;13.23;;
54454;SDS011;40364;52.270;10.546;2023-04-09T13:38:42;21.70;;;13.43;;
54454;SDS011;40364;52.270;10.546;2023-04-09T13:41:09;21.75;;;13.48;;
54454;SDS011;40364;52.270;10.546;2023-04-09T13:43:37;24.55;;;14.85;;
54454;SDS011;40364;52.270;10.546;2023-04-09T13:46:03;24.25;;;15.05;;
54454;SDS011;40364;52.270;10.546;2023-04-09T13:48:30;23.27;;;14.07;;
54454;SDS011;40364;52.270;10.546;2023-04-09T13:50:56;22.80;;;13.73;;
54454;SDS011;40364;52.270;10.546;2023-04-09T13:53:23;21.60;;;14.02;;
54454;SDS011;40364;52.270;10.546;2023-04-09T13:55:49;21.15;;;13.57;;
54454;SDS011;40364;52.270;10.546;2023-04-09T13:58:15;20.90;;;13.77;;
54454;SDS011;40364;52.270;10.546;2023-04-09T14:00:43;17.83;;;12.80;;
54454;SDS011;40364;52.270;10.546;2023-04-09T14:03:10;20.00;;;13.20;;
54454;SDS011;40364;52.270;10.546;2023-04-09T14:05:38;19.25;;;13.10;;
54454;SDS011;40364;52.270;10.546;2023-04-09T14:08:04;18.45;;;13.27;;
54454;SDS011;40364;52.270;10.546;2023-04-09T14:10:31;19.42;;;13.25;;
54454;SDS011;40364;52.270;10.546;2023-04-09T14:12:57;20.92;;;12.88;;
54454;SDS011;40364;52.270;10.546;2023-04-09T14:15:23;20.77;;;12.93;;
54454;SDS011;40364;52.270;10.546;2023-04-09T14:17:51;19.52;;;13.32;;